Terminal Aerodrome Forecast
Issued by NWS Cleveland, OH

Home | Current Version | Previous Version | Text Only | Print | Product List | Glossary Off
Versions: 1 2 3 4 5 6 7 8 9 10 11 12 13 14 15 16 17 18 19 20 21 22 23 24 25 26 27

000
FTUS41 KCLE 260041 AAA
TAFMFD
TAF AMD
KMFD 260041Z 2601/2624 VRB02KT P6SM -RA SCT006 BKN045 OVC060
      TEMPO 2601/2604 2SM -RA BR OVC006
     FM260400 29008KT P6SM VCSH OVC025
     FM260600 28009KT 5SM BR VCSH OVC008
     FM261200 28009KT P6SM BKN015
     FM261900 27009KT P6SM SCT015 BKN035
     FM262300 27006KT P6SM SCT035 BKN080=

USA.gov is the U.S. government's official web portal to all federal, state and local government web resources and services.